Time;durP1;ratioP1;P1;durP2;ratioP2;P2;SDS_P1;SDS_P2;PMS_P1;PMS_P2;Temp;Humidity;BMP_temperature;BMP_pressure;BME280_temperature;BME280_humidity;BME280_pressure;Samples;Min_cycle;Max_cycle;Signal;HPM_P1;HPM_P2
2023/01/27 00:01:28;;;;;;;24.13;10.50;;;;;;;1.94;100.00;147935.13;5050191;28;20532;-72
2023/01/27 00:03:53;;;;;;;15.87;7.70;;;;;;;1.94;100.00;147935.13;5053087;28;20036;-73
2023/01/27 00:06:19;;;;;;;18.77;8.87;;;;;;;-145.18;100.00;114074.00;5051665;28;20033;-72
2023/01/27 00:08:44;;;;;;;15.67;7.63;;;;;;;-145.18;100.00;147935.13;5051605;28;20040;-73
2023/01/27 00:13:54;;;;;;;17.03;9.33;;;;;;;-145.18;100.00;114074.00;5050011;28;20087;-73
2023/01/27 00:16:19;;;;;;;15.77;8.67;;;;;;;;;;5048052;28;20033;-71
2023/01/27 00:18:45;;;;;;;16.33;8.87;;;;;;;-145.18;100.00;147935.13;5050252;28;20025;-71
2023/01/27 00:26:39;;;;;;;13.07;5.43;;;;;;;-145.18;100.00;114074.00;5048934;28;20533;-71
2023/01/27 00:29:04;;;;;;;12.27;6.93;;;;;;;-145.18;100.00;114074.00;5051199;28;20029;-71
2023/01/27 00:34:13;;;;;;;12.70;7.20;;;;;;;-145.18;100.00;114074.00;5051397;28;20044;-71
2023/01/27 00:36:40;;;;;;;14.20;7.53;;;;;;;-145.18;100.00;114074.00;5051306;28;20388;-71
2023/01/27 00:39:07;;;;;;;14.83;8.43;;;;;;;-145.18;100.00;114074.00;5051879;28;20064;-71
2023/01/27 00:41:33;;;;;;;12.83;6.73;;;;;;;-145.18;100.00;114074.00;5047195;28;20049;-71
2023/01/27 00:44:00;;;;;;;16.27;8.70;;;;;;;-145.18;100.00;114074.00;5050550;28;20053;-71
2023/01/27 00:46:25;;;;;;;15.47;9.03;;;;;;;-145.18;100.00;147935.13;5045031;28;20032;-71
2023/01/27 00:48:51;;;;;;;11.87;5.33;;;;;;;-145.18;100.00;114074.00;5051463;28;20472;-71
2023/01/27 00:51:17;;;;;;;16.17;8.50;;;;;;;-145.18;100.00;147935.13;5050437;28;20037;-71
2023/01/27 00:53:44;;;;;;;15.00;8.27;;;;;;;-145.18;100.00;147935.13;5051088;28;20028;-72
2023/01/27 00:56:10;;;;;;;13.40;6.43;;;;;;;-145.18;100.00;114074.00;5048680;28;20041;-71
2023/01/27 00:58:35;;;;;;;8.93;4.30;;;;;;;-145.18;100.00;114074.00;5047299;28;20493;-72
2023/01/27 01:01:04;;;;;;;15.47;7.13;;;;;;;-145.18;100.00;114074.00;5044835;28;20039;-71
2023/01/27 01:03:31;;;;;;;12.97;6.53;;;;;;;-145.18;100.00;114074.00;5048343;28;20449;-72
2023/01/27 01:05:58;;;;;;;12.17;6.63;;;;;;;-145.18;100.00;114074.00;5036564;28;20473;-71
2023/01/27 01:08:24;;;;;;;10.77;5.93;;;;;;;-145.18;100.00;114074.00;5046804;28;20033;-71
2023/01/27 01:10:49;;;;;;;11.23;6.87;;;;;;;-145.18;100.00;114074.00;5048256;28;20048;-71
2023/01/27 01:13:14;;;;;;;12.30;7.20;;;;;;;-145.18;100.00;114074.00;5047604;28;20120;-71
2023/01/27 01:15:41;;;;;;;15.27;6.97;;;;;;;-145.18;100.00;114074.00;5052191;28;20456;-72
2023/01/27 01:18:08;;;;;;;11.37;6.30;;;;;;;-145.18;100.00;114074.00;5051516;28;20087;-71
2023/01/27 01:20:39;;;;;;;10.70;6.33;;;;;;;-145.18;100.00;114074.00;5049791;28;20064;-71
2023/01/27 01:23:06;;;;;;;11.05;6.22;;;;;;;-145.18;100.00;114074.00;5048414;28;20032;-71
2023/01/27 01:25:32;;;;;;;9.53;5.33;;;;;;;-145.18;100.00;114074.00;5050970;28;20499;-71
2023/01/27 01:27:57;;;;;;;9.17;5.03;;;;;;;;;;5048899;28;20029;-71
2023/01/27 01:30:25;;;;;;;9.37;5.57;;;;;;;-145.18;100.00;114074.00;5050295;28;20082;-71
2023/01/27 01:32:50;;;;;;;9.17;5.20;;;;;;;;;;5050110;28;20483;-71
2023/01/27 01:35:15;;;;;;;8.17;4.60;;;;;;;;;;5051208;28;20037;-71
2023/01/27 01:37:41;;;;;;;8.90;4.70;;;;;;;-145.18;100.00;114074.00;5051836;28;20021;-71
2023/01/27 01:40:07;;;;;;;8.57;4.50;;;;;;;-145.18;100.00;114074.00;5049129;28;20069;-71
2023/01/27 01:42:48;;;;;;;8.67;4.93;;;;;;;-145.18;100.00;114074.00;5047856;28;20059;-71
2023/01/27 01:45:46;;;;;;;8.27;4.88;;;;;;;-145.18;100.00;114074.00;5041529;28;20089;-71
2023/01/27 01:48:17;;;;;;;7.20;4.57;;;;;;;-145.18;100.00;114074.00;5034218;28;20041;-71
2023/01/27 01:50:49;;;;;;;10.20;4.85;;;;;;;-145.18;100.00;114074.00;5050348;28;20028;-71
2023/01/27 01:53:15;;;;;;;;;;;;;;;-145.18;100.00;114074.00;5050545;28;20426;-71
2023/01/27 01:55:41;;;;;;;10.00;5.00;;;;;;;-145.18;100.00;114074.00;5048268;28;19971;-71
2023/01/27 01:58:10;;;;;;;8.00;4.70;;;;;;;-145.18;100.00;114074.00;5051298;28;20056;-72
2023/01/27 02:00:36;;;;;;;7.87;5.10;;;;;;;;;;5048650;28;20055;-69
2023/01/27 02:03:02;;;;;;;9.87;4.90;;;;;;;-145.18;100.00;114074.00;5043627;28;20445;-69
2023/01/27 02:05:41;;;;;;;7.27;4.67;;;;;;;-145.18;100.00;114074.00;5048698;28;20029;-69
2023/01/27 02:08:06;;;;;;;7.57;4.70;;;;;;;;;;5049541;28;20120;-69
2023/01/27 02:10:33;;;;;;;9.07;4.60;;;;;;;-145.18;100.00;60484.78;5048365;28;20185;-68
2023/01/27 02:12:58;;;;;;;8.07;4.73;;;;;;;;;;5047541;28;20036;-69
2023/01/27 02:15:24;;;;;;;8.60;4.97;;;;;;;-145.18;100.00;114074.00;5048705;28;20029;-69
2023/01/27 02:17:49;;;;;;;8.97;4.60;;;;;;;-145.18;100.00;114074.00;5048294;28;20167;-70
2023/01/27 02:20:20;;;;;;;7.07;4.17;;;;;;;-145.18;100.00;114074.00;5046897;28;20044;-71
2023/01/27 02:23:09;;;;;;;7.30;3.97;;;;;;;-145.18;100.00;114074.00;5048077;28;20064;-69
2023/01/27 02:25:34;;;;;;;8.27;4.57;;;;;;;;;;5045203;28;20388;-69
2023/01/27 02:28:06;;;;;;;9.53;4.60;;;;;;;-145.18;100.00;114074.00;5048285;28;20083;-69
2023/01/27 02:30:32;;;;;;;8.50;5.13;;;;;;;-145.18;100.00;114074.00;5047911;28;20051;-70
2023/01/27 02:32:57;;;;;;;9.73;5.50;;;;;;;;;;5045734;28;20029;-70
2023/01/27 02:35:49;;;;;;;8.90;5.37;;;;;;;-145.18;100.00;114074.00;5046594;28;20033;-70
2023/01/27 02:38:16;;;;;;;8.98;4.95;;;;;;;-145.18;100.00;114074.00;5042713;28;20044;-69
2023/01/27 02:40:42;;;;;;;10.53;5.73;;;;;;;-145.18;100.00;114074.00;5043552;28;20036;-69
2023/01/27 02:43:07;;;;;;;13.67;5.57;;;;;;;;;;5049641;28;20091;-68
2023/01/27 02:45:33;;;;;;;10.43;5.53;;;;;;;-145.18;100.00;114074.00;5046773;28;20021;-70
2023/01/27 02:47:58;;;;;;;10.90;6.10;;;;;;;-145.18;100.00;114074.00;5050117;28;20495;-69
2023/01/27 02:50:23;;;;;;;9.03;5.43;;;;;;;;;;5045468;28;20068;-69
2023/01/27 02:52:49;;;;;;;9.73;5.50;;;;;;;-145.18;100.00;114074.00;5049351;28;20056;-70
2023/01/27 02:55:14;;;;;;;10.80;5.70;;;;;;;;;;5049001;28;20025;-69
2023/01/27 02:57:39;;;;;;;8.97;4.27;;;;;;;-145.18;100.00;114074.00;5047357;28;20484;-69
2023/01/27 03:00:08;;;;;;;7.93;4.93;;;;;;;-145.18;100.00;114074.00;5046898;28;20396;-70
2023/01/27 03:02:34;;;;;;;9.53;5.27;;;;;;;-145.18;100.00;114074.00;5048999;28;20492;-69
2023/01/27 03:04:59;;;;;;;8.50;4.87;;;;;;;-145.18;100.00;114074.00;5044088;28;20063;-69
2023/01/27 03:07:25;;;;;;;9.70;5.10;;;;;;;;;;5045736;28;20025;-69
2023/01/27 03:09:50;;;;;;;7.87;4.73;;;;;;;-145.18;100.00;114074.00;5043880;28;20036;-69
2023/01/27 03:12:21;;;;;;;7.67;4.60;;;;;;;-145.18;100.00;114074.00;5048553;28;20744;-69
2023/01/27 03:20:14;;;;;;;7.70;4.17;;;;;;;;;;5047464;28;20035;-70
2023/01/27 03:22:40;;;;;;;6.33;3.73;;;;;;;-145.18;100.00;114074.00;5048079;28;20025;-68
2023/01/27 03:25:05;;;;;;;6.57;3.70;;;;;;;-145.18;100.00;114074.00;5049469;28;20539;-69
2023/01/27 03:27:31;;;;;;;6.87;3.67;;;;;;;;;;5048637;28;20044;-69
2023/01/27 03:29:56;;;;;;;8.80;3.57;;;;;;;-145.18;100.00;114074.00;5045642;28;21489;-69
2023/01/27 03:32:29;;;;;;;6.50;3.77;;;;;;;-145.18;100.00;114074.00;5047008;28;20025;-69
2023/01/27 03:34:59;;;;;;;9.03;4.23;;;;;;;-145.18;100.00;114074.00;5047409;28;20033;-69
2023/01/27 03:48:27;;;;;;;9.57;4.40;;;;;;;-145.18;100.00;114074.00;5046934;28;20396;-68
2023/01/27 03:50:56;;;;;;;8.87;4.70;;;;;;;-145.18;100.00;114074.00;5046599;28;20021;-69
2023/01/27 03:53:21;;;;;;;7.17;4.07;;;;;;;;;;5049308;28;20031;-69
2023/01/27 03:55:47;;;;;;;12.60;4.50;;;;;;;-145.18;100.00;114074.00;5049917;28;20400;-69
2023/01/27 03:58:18;;;;;;;8.90;4.50;;;;;;;;;;5047030;28;20032;-69
2023/01/27 04:00:51;;;;;;;11.25;4.70;;;;;;;-145.18;100.00;114074.00;5049053;28;20033;-71
2023/01/27 04:08:46;;;;;;;12.20;5.13;;;;;;;-145.18;100.00;114074.00;5048535;28;20079;-71
2023/01/27 04:13:59;;;;;;;10.67;5.17;;;;;;;-145.18;100.00;114074.00;5048515;28;20117;-71
2023/01/27 04:16:27;;;;;;;10.30;5.13;;;;;;;-145.18;100.00;114074.00;5048250;28;20063;-71
2023/01/27 04:18:52;;;;;;;11.33;4.80;;;;;;;;;;5048277;28;20041;-71
2023/01/27 04:21:18;;;;;;;13.13;5.20;;;;;;;-145.18;100.00;114074.00;5048135;28;20408;-71
2023/01/27 04:23:43;;;;;;;10.30;4.80;;;;;;;-145.18;100.00;114074.00;5046649;28;20389;-71
2023/01/27 04:26:08;;;;;;;10.67;5.17;;;;;;;;;;5052240;28;20120;-71
2023/01/27 04:28:34;;;;;;;14.53;5.83;;;;;;;;;;5052900;28;20028;-71
2023/01/27 04:30:59;;;;;;;9.27;5.00;;;;;;;-145.18;100.00;114074.00;5051386;28;20029;-71
2023/01/27 04:33:25;;;;;;;8.93;4.80;;;;;;;-145.18;100.00;114074.00;5050004;28;20021;-71
2023/01/27 04:35:50;;;;;;;10.13;5.33;;;;;;;-145.18;100.00;114074.00;5050723;28;20113;-71
2023/01/27 04:38:15;;;;;;;12.80;5.70;;;;;;;-145.18;100.00;114074.00;5052345;28;20033;-71
2023/01/27 04:40:41;;;;;;;16.43;6.17;;;;;;;-145.18;100.00;114074.00;5052043;28;20078;-71
2023/01/27 04:43:06;;;;;;;11.43;6.13;;;;;;;-145.18;100.00;114074.00;5051241;28;20536;-71
2023/01/27 04:45:32;;;;;;;17.10;6.03;;;;;;;-145.18;100.00;114074.00;5052075;28;20446;-71
2023/01/27 04:47:57;;;;;;;13.47;6.13;;;;;;;-145.18;100.00;114074.00;5052516;28;20051;-70
2023/01/27 04:50:22;;;;;;;14.20;7.00;;;;;;;-145.18;100.00;114074.00;5051600;28;20335;-71
2023/01/27 04:52:48;;;;;;;16.83;6.77;;;;;;;-145.18;100.00;114074.00;5052487;28;20025;-71
2023/01/27 04:55:13;;;;;;;18.07;7.73;;;;;;;-145.18;100.00;114074.00;5051068;28;20484;-71
2023/01/27 04:57:39;;;;;;;16.57;7.87;;;;;;;-145.18;100.00;114074.00;5050802;28;20055;-71
2023/01/27 05:00:05;;;;;;;17.03;8.20;;;;;;;-145.18;100.00;114074.00;5046937;28;20418;-71
2023/01/27 05:02:30;;;;;;;16.30;8.30;;;;;;;-145.18;100.00;60484.78;5051068;28;20086;-71
2023/01/27 05:04:56;;;;;;;16.47;8.27;;;;;;;-145.18;100.00;114074.00;5051167;28;20029;-71
2023/01/27 05:07:22;;;;;;;18.67;8.87;;;;;;;-145.18;100.00;114074.00;5048840;28;20074;-71
2023/01/27 05:09:47;;;;;;;22.33;9.60;;;;;;;-145.18;100.00;114074.00;5050753;28;20462;-70
2023/01/27 05:12:13;;;;;;;16.40;8.53;;;;;;;-145.18;100.00;114074.00;5050930;28;20123;-71
2023/01/27 05:14:38;;;;;;;27.27;10.60;;;;;;;-145.18;100.00;114074.00;5050819;28;20025;-71
2023/01/27 05:17:03;;;;;;;21.97;9.50;;;;;;;-145.18;100.00;114074.00;5047305;28;20078;-71
2023/01/27 05:19:29;;;;;;;20.63;10.33;;;;;;;-145.18;100.00;114074.00;5050223;28;20056;-71
2023/01/27 05:21:54;;;;;;;22.57;10.30;;;;;;;-145.18;100.00;114074.00;5044593;28;20016;-71
2023/01/27 05:24:19;;;;;;;19.90;9.67;;;;;;;-145.18;100.00;114074.00;5050354;28;20116;-71
2023/01/27 05:26:45;;;;;;;21.67;9.77;;;;;;;-145.18;100.00;147935.13;5051344;28;20412;-70
2023/01/27 05:29:10;;;;;;;20.73;10.17;;;;;;;-145.18;100.00;114074.00;5049377;28;20115;-71
2023/01/27 05:31:36;;;;;;;20.70;10.60;;;;;;;-145.18;100.00;114074.00;5047753;28;20025;-71
2023/01/27 05:34:01;;;;;;;22.10;10.50;;;;;;;-145.18;100.00;114074.00;5051038;28;20029;-71
2023/01/27 05:36:27;;;;;;;22.20;10.93;;;;;;;-145.18;100.00;114074.00;5049976;28;20468;-71
2023/01/27 05:38:54;;;;;;;20.43;10.27;;;;;;;-145.18;100.00;147935.13;5050459;28;20472;-72
2023/01/27 05:41:20;;;;;;;20.50;9.73;;;;;;;-145.18;100.00;147935.13;5047087;28;20025;-72
2023/01/27 05:43:50;;;;;;;23.90;10.50;;;;;;;-145.18;100.00;114074.00;5050283;28;20025;-71
2023/01/27 05:46:17;;;;;;;21.07;9.80;;;;;;;-145.18;100.00;114074.00;5049632;28;20021;-72
2023/01/27 05:48:45;;;;;;;21.00;9.87;;;;;;;1.94;100.00;147935.13;5052777;28;20479;-72
2023/01/27 05:51:11;;;;;;;20.30;10.07;;;;;;;-145.18;100.00;147935.13;5050233;28;20439;-72
2023/01/27 05:53:37;;;;;;;18.60;8.17;;;;;;;-145.18;100.00;114074.00;5049280;28;20039;-71
2023/01/27 05:56:04;;;;;;;21.80;9.50;;;;;;;-145.18;100.00;114074.00;5050065;28;20469;-72
2023/01/27 05:58:30;;;;;;;17.83;8.67;;;;;;;-145.18;100.00;114074.00;5050168;28;20028;-72
2023/01/27 06:00:56;;;;;;;19.20;8.43;;;;;;;1.94;100.00;147935.13;5048414;28;20063;-72
2023/01/27 06:03:22;;;;;;;18.43;7.80;;;;;;;-145.18;100.00;114074.00;5049794;28;20033;-72
2023/01/27 06:05:50;;;;;;;19.03;8.53;;;;;;;-145.18;100.00;114074.00;5048624;28;20112;-72
2023/01/27 06:08:15;;;;;;;15.43;6.73;;;;;;;-145.18;100.00;114074.00;5048204;28;20025;-72
2023/01/27 06:10:41;;;;;;;14.60;7.23;;;;;;;-145.18;100.00;114074.00;5048123;28;20435;-72
2023/01/27 06:13:06;;;;;;;11.67;5.57;;;;;;;-145.18;100.00;114074.00;5046225;28;20053;-72
2023/01/27 06:15:31;;;;;;;14.80;7.30;;;;;;;-145.18;100.00;114074.00;5044828;28;20021;-72
2023/01/27 06:17:57;;;;;;;13.47;6.77;;;;;;;-145.18;100.00;114074.00;5051226;28;20124;-72
2023/01/27 06:20:22;;;;;;;13.53;7.10;;;;;;;-145.18;100.00;114074.00;5050133;28;20024;-72
2023/01/27 06:22:49;;;;;;;14.13;6.87;;;;;;;-145.18;100.00;114074.00;5049645;28;20023;-72
2023/01/27 06:25:15;;;;;;;11.57;6.30;;;;;;;-145.18;100.00;114074.00;5049855;28;20127;-72
2023/01/27 06:27:40;;;;;;;12.23;6.13;;;;;;;-145.18;100.00;114074.00;5049645;28;20036;-72
2023/01/27 06:30:06;;;;;;;13.90;6.63;;;;;;;-145.18;100.00;114074.00;5048419;28;20036;-72
2023/01/27 06:32:35;;;;;;;11.43;6.03;;;;;;;-145.18;100.00;114074.00;5049433;28;20025;-71
2023/01/27 06:35:00;;;;;;;15.27;6.57;;;;;;;-145.18;100.00;114074.00;5049705;28;20468;-72
2023/01/27 06:37:28;;;;;;;13.03;5.97;;;;;;;-145.18;100.00;114074.00;5046360;28;20025;-72
2023/01/27 06:39:53;;;;;;;11.23;4.83;;;;;;;-145.18;100.00;114074.00;5048814;28;20177;-72
2023/01/27 06:42:19;;;;;;;16.27;6.10;;;;;;;-145.18;100.00;114074.00;5048643;28;20476;-72
2023/01/27 06:44:44;;;;;;;13.00;6.23;;;;;;;-145.18;100.00;114074.00;5050107;28;20013;-72
2023/01/27 06:47:09;;;;;;;14.37;6.60;;;;;;;-145.18;100.00;114074.00;5048283;28;20491;-72
2023/01/27 06:49:35;;;;;;;12.30;5.93;;;;;;;;;;5047820;28;20028;-71
2023/01/27 06:52:00;;;;;;;12.73;6.37;;;;;;;-145.18;100.00;114074.00;5049166;28;20036;-72
2023/01/27 06:54:25;;;;;;;13.03;6.40;;;;;;;-145.18;100.00;147935.13;5049911;28;20486;-72
2023/01/27 06:56:51;;;;;;;15.23;6.67;;;;;;;-145.18;100.00;114074.00;5048774;28;20020;-72
2023/01/27 06:59:16;;;;;;;15.30;6.73;;;;;;;-145.18;100.00;114074.00;5046616;28;20025;-72
2023/01/27 07:01:41;;;;;;;15.87;6.90;;;;;;;;;;5047737;28;20507;-72
2023/01/27 07:04:07;;;;;;;18.00;7.23;;;;;;;-145.18;100.00;114074.00;5046741;28;20051;-72
2023/01/27 07:06:32;;;;;;;15.13;7.10;;;;;;;-145.18;100.00;114074.00;5049572;28;20472;-72
2023/01/27 07:08:57;;;;;;;18.40;6.93;;;;;;;-145.18;100.00;114074.00;5047803;28;20029;-72
2023/01/27 07:11:24;;;;;;;16.60;7.00;;;;;;;-145.18;100.00;114074.00;5047295;28;20390;-72
2023/01/27 07:13:49;;;;;;;19.77;7.80;;;;;;;-145.18;100.00;114074.00;5046084;28;20020;-72
2023/01/27 07:16:15;;;;;;;17.37;7.43;;;;;;;-145.18;100.00;114074.00;5048219;28;20091;-72
2023/01/27 07:18:40;;;;;;;17.30;7.23;;;;;;;-145.18;100.00;114074.00;5047065;28;20024;-72
2023/01/27 07:21:05;;;;;;;18.10;7.20;;;;;;;-145.18;100.00;114074.00;5049961;28;20102;-72
2023/01/27 07:23:31;;;;;;;21.27;7.27;;;;;;;1.94;100.00;147935.13;5047343;28;20045;-72
2023/01/27 07:25:56;;;;;;;19.40;7.13;;;;;;;1.94;100.00;147935.13;5041214;28;20021;-72
2023/01/27 07:28:22;;;;;;;20.83;8.33;;;;;;;;;;5050032;28;20029;-72
2023/01/27 07:30:47;;;;;;;16.20;7.20;;;;;;;1.94;100.00;147935.13;5050225;28;20472;-72
2023/01/27 07:33:16;;;;;;;17.27;7.33;;;;;;;-145.18;100.00;114074.00;5050077;28;20380;-72
2023/01/27 07:35:41;;;;;;;18.83;7.73;;;;;;;1.94;100.00;147935.13;5050011;28;20021;-72
2023/01/27 07:38:07;;;;;;;21.43;8.30;;;;;;;-145.18;100.00;114074.00;5050146;28;20468;-72
2023/01/27 07:40:33;;;;;;;18.80;8.33;;;;;;;-145.18;100.00;147935.13;5048784;28;20476;-72
2023/01/27 07:43:00;;;;;;;18.77;8.10;;;;;;;1.94;100.00;147935.13;5049855;28;20017;-71
2023/01/27 07:45:27;;;;;;;18.33;8.03;;;;;;;-145.18;100.00;114074.00;5044770;28;20014;-72
2023/01/27 07:47:52;;;;;;;17.33;7.70;;;;;;;1.94;100.00;147935.13;5050052;28;20098;-72
2023/01/27 07:50:18;;;;;;;13.83;6.40;;;;;;;-145.18;100.00;114074.00;5049971;28;20025;-72
2023/01/27 07:52:43;;;;;;;18.37;7.80;;;;;;;1.94;100.00;147935.13;5052830;28;20025;-72
2023/01/27 07:55:09;;;;;;;15.33;7.77;;;;;;;-145.18;100.00;114074.00;5053704;28;20031;-72
2023/01/27 07:57:34;;;;;;;17.37;7.30;;;;;;;1.94;100.00;147935.13;5052045;28;20468;-72
2023/01/27 07:59:59;;;;;;;14.47;7.03;;;;;;;1.94;100.00;147935.13;5053596;28;20024;-72
2023/01/27 08:02:27;;;;;;;12.57;5.33;;;;;;;1.94;100.00;147935.13;5053418;28;20016;-72
2023/01/27 08:04:52;;;;;;;14.50;7.20;;;;;;;1.94;100.00;147935.13;5053262;28;20040;-72
2023/01/27 08:07:18;;;;;;;16.87;7.47;;;;;;;-145.18;100.00;114074.00;5053631;28;20115;-72
2023/01/27 08:09:43;;;;;;;12.50;5.50;;;;;;;1.94;100.00;147935.13;5053487;28;20054;-73
2023/01/27 08:12:08;;;;;;;12.80;6.33;;;;;;;-145.18;100.00;147935.13;5053509;28;20099;-72
2023/01/27 08:14:34;;;;;;;15.57;6.87;;;;;;;1.94;100.00;147935.13;5051880;28;20468;-72
2023/01/27 08:17:00;;;;;;;13.87;6.60;;;;;;;-145.18;100.00;147935.13;5051779;28;20119;-72
2023/01/27 08:19:25;;;;;;;13.57;6.40;;;;;;;;;;5053414;28;20490;-72
2023/01/27 08:21:50;;;;;;;12.13;6.10;;;;;;;-145.18;100.00;147935.13;5052594;28;20025;-72
2023/01/27 08:24:16;;;;;;;11.30;5.80;;;;;;;-145.18;100.00;147935.13;5053102;28;20053;-72
2023/01/27 08:26:41;;;;;;;11.83;5.87;;;;;;;1.94;100.00;147935.13;5053002;28;20024;-72
2023/01/27 08:29:07;;;;;;;11.13;6.10;;;;;;;-145.18;100.00;114074.00;5053101;28;20108;-72
2023/01/27 08:31:32;;;;;;;13.63;6.37;;;;;;;-145.18;100.00;114074.00;5051821;28;20021;-71
2023/01/27 08:33:58;;;;;;;10.73;5.77;;;;;;;-145.18;100.00;147935.13;5053201;28;20020;-72
2023/01/27 08:36:23;;;;;;;9.10;4.13;;;;;;;-145.18;100.00;114074.00;5049600;28;20106;-72
2023/01/27 08:38:49;;;;;;;8.70;4.07;;;;;;;-145.18;100.00;114074.00;5052237;28;20021;-71
2023/01/27 08:41:21;;;;;;;11.70;6.03;;;;;;;-145.18;100.00;114074.00;5052918;28;20045;-72
2023/01/27 08:43:47;;;;;;;;;;;;;;;-145.18;100.00;114074.00;5053440;28;20024;-72
2023/01/27 08:46:13;;;;;;;9.93;5.83;;;;;;;-145.18;100.00;114074.00;5052836;28;19909;-72
2023/01/27 08:48:38;;;;;;;9.67;4.87;;;;;;;-145.18;100.00;114074.00;5052352;28;20512;-72
2023/01/27 08:51:06;;;;;;;9.53;5.77;;;;;;;-145.18;100.00;114074.00;5052563;28;20135;-72
2023/01/27 08:53:33;;;;;;;8.23;4.40;;;;;;;-145.18;100.00;114074.00;5052602;28;20131;-72
2023/01/27 08:56:04;;;;;;;7.73;4.30;;;;;;;-145.18;100.00;114074.00;5052663;28;20558;-72
2023/01/27 08:58:30;;;;;;;9.30;5.00;;;;;;;-145.18;100.00;114074.00;5052289;28;20036;-72
2023/01/27 09:00:59;;;;;;;9.40;4.90;;;;;;;-145.18;100.00;114074.00;5052188;28;20017;-72
2023/01/27 09:03:25;;;;;;;7.67;4.07;;;;;;;-145.18;100.00;114074.00;5034288;28;20028;-72
2023/01/27 09:05:50;;;;;;;6.20;3.50;;;;;;;-145.18;100.00;114074.00;5051335;28;20033;-72
2023/01/27 09:08:15;;;;;;;6.60;4.20;;;;;;;-145.18;100.00;114074.00;5052154;28;20025;-72
2023/01/27 09:10:41;;;;;;;6.93;3.97;;;;;;;-145.18;100.00;114074.00;5052172;28;20032;-72
2023/01/27 09:13:08;;;;;;;6.93;3.10;;;;;;;-145.18;100.00;114074.00;5033981;28;20428;-72
2023/01/27 09:15:34;;;;;;;6.03;3.33;;;;;;;-145.18;100.00;114074.00;5051968;28;20365;-72
2023/01/27 09:18:00;;;;;;;7.87;4.00;;;;;;;-145.18;100.00;114074.00;5051914;28;20023;-72
2023/01/27 09:20:25;;;;;;;6.53;3.20;;;;;;;-145.18;100.00;114074.00;5051949;28;20383;-72
2023/01/27 09:22:53;;;;;;;5.67;2.93;;;;;;;-145.18;100.00;114074.00;5051106;28;20040;-72
2023/01/27 09:25:19;;;;;;;6.83;4.30;;;;;;;-145.18;100.00;114074.00;5051819;28;20021;-72
2023/01/27 09:27:45;;;;;;;8.77;4.40;;;;;;;-145.18;100.00;114074.00;5051878;28;20074;-71
2023/01/27 09:30:13;;;;;;;7.07;3.90;;;;;;;-145.18;100.00;114074.00;5051862;28;20024;-73
2023/01/27 09:32:39;;;;;;;6.73;4.10;;;;;;;-145.18;100.00;114074.00;5052039;28;20078;-72
2023/01/27 09:35:05;;;;;;;8.97;4.77;;;;;;;-145.18;100.00;114074.00;5051779;28;20036;-72
2023/01/27 09:37:38;;;;;;;6.93;3.63;;;;;;;-145.18;100.00;114074.00;5047134;28;20040;-71
2023/01/27 09:40:13;;;;;;;6.27;3.70;;;;;;;-145.18;100.00;114074.00;5051092;28;20461;-72
2023/01/27 09:43:34;;;;;;;7.73;4.23;;;;;;;-145.18;100.00;114074.00;5051586;28;20108;-72
2023/01/27 09:46:14;;;;;;;5.43;2.50;;;;;;;-145.18;100.00;114074.00;4963339;28;20022;-72
2023/01/27 09:48:52;;;;;;;6.57;3.03;;;;;;;;;;5051254;28;20157;-71
2023/01/27 09:51:20;;;;;;;6.63;4.07;;;;;;;-145.18;100.00;114074.00;5051903;28;20033;-71
2023/01/27 09:54:05;;;;;;;5.67;3.33;;;;;;;-145.18;100.00;114074.00;5051496;28;20388;-71
2023/01/27 09:56:52;;;;;;;5.33;2.53;;;;;;;-145.18;100.00;114074.00;5050527;28;20108;-72
2023/01/27 10:00:02;;;;;;;7.37;4.20;;;;;;;-145.18;100.00;114074.00;5051463;28;20017;-71
2023/01/27 10:02:30;;;;;;;6.20;3.80;;;;;;;-145.18;100.00;114074.00;5002234;28;20430;-72
2023/01/27 10:05:05;;;;;;;6.23;3.67;;;;;;;-145.18;100.00;114074.00;5051006;28;20025;-71
2023/01/27 10:07:36;;;;;;;6.10;3.30;;;;;;;-145.18;100.00;114074.00;5051355;28;20541;-71
2023/01/27 10:10:20;;;;;;;4.82;2.80;;;;;;;-145.18;100.00;114074.00;5051313;28;20032;-72
2023/01/27 10:12:48;;;;;;;4.57;2.77;;;;;;;-145.18;100.00;114074.00;5050427;28;20491;-72
2023/01/27 10:15:32;;;;;;;5.97;3.10;;;;;;;-145.18;100.00;114074.00;5050273;28;20587;-71
2023/01/27 10:18:12;;;;;;;4.40;2.20;;;;;;;-145.18;100.00;114074.00;5049079;28;20029;-72
2023/01/27 10:20:51;;;;;;;3.83;2.13;;;;;;;-145.18;100.00;114074.00;5050815;28;20024;-71
2023/01/27 10:23:44;;;;;;;4.03;2.40;;;;;;;-145.18;100.00;114074.00;5051030;28;20431;-71
2023/01/27 10:26:30;;;;;;;4.13;2.10;;;;;;;-145.18;100.00;114074.00;5050871;28;20096;-71
2023/01/27 10:29:08;;;;;;;5.67;2.27;;;;;;;-145.18;100.00;114074.00;5050184;28;20155;-72
2023/01/27 10:31:37;;;;;;;3.70;2.20;;;;;;;-145.18;100.00;114074.00;5045275;28;20373;-72
2023/01/27 10:34:22;;;;;;;5.23;2.20;;;;;;;-145.18;100.00;114074.00;5050787;28;20017;-71
2023/01/27 10:37:10;;;;;;;4.20;1.80;;;;;;;;;;5050671;28;20021;-71
2023/01/27 10:39:48;;;;;;;4.97;2.60;;;;;;;-145.18;100.00;114074.00;5003764;28;20503;-72
2023/01/27 10:42:32;;;;;;;3.77;2.23;;;;;;;;;;5050682;28;20025;-71
2023/01/27 10:45:04;;;;;;;4.30;2.77;;;;;;;-145.18;100.00;114074.00;5050667;28;20025;-71
2023/01/27 10:47:35;;;;;;;4.35;2.03;;;;;;;-145.18;100.00;114074.00;5049703;28;20025;-72
2023/01/27 10:50:22;;;;;;;2.88;1.70;;;;;;;-145.18;100.00;114074.00;5050317;28;20102;-71
2023/01/27 10:52:53;;;;;;;3.30;1.60;;;;;;;;;;5050640;28;20036;-72
2023/01/27 10:55:21;;;;;;;3.25;2.03;;;;;;;;;;5050635;28;20094;-72
2023/01/27 10:57:53;;;;;;;3.83;2.20;;;;;;;;;;5050482;28;20024;-72
2023/01/27 11:00:31;;;;;;;3.43;2.07;;;;;;;-145.18;100.00;114074.00;5050327;28;20079;-72
2023/01/27 11:02:59;;;;;;;3.90;2.33;;;;;;;;;;5048289;28;20434;-72
2023/01/27 11:05:29;;;;;;;4.53;2.50;;;;;;;;;;5047425;28;20129;-71
2023/01/27 11:08:14;;;;;;;4.27;2.80;;;;;;;;;;5049563;28;20371;-72
2023/01/27 11:13:39;;;;;;;3.27;1.90;;;;;;;-145.18;100.00;60484.78;5008811;28;20033;-72
2023/01/27 11:16:12;;;;;;;3.60;1.77;;;;;;;-145.18;100.00;60484.78;5050279;28;20031;-72
2023/01/27 11:18:38;;;;;;;4.87;2.03;;;;;;;-145.18;100.00;114074.00;5049805;28;20069;-72
2023/01/27 11:21:05;;;;;;;2.90;1.73;;;;;;;-145.18;100.00;114074.00;5049423;28;20091;-72
2023/01/27 11:23:39;;;;;;;7.43;2.00;;;;;;;-145.18;100.00;60484.78;5049984;28;20102;-72
2023/01/27 11:26:19;;;;;;;3.30;1.70;;;;;;;-145.18;100.00;60484.78;5050309;28;20012;-72
2023/01/27 11:29:06;;;;;;;3.83;2.00;;;;;;;-145.18;100.00;60484.78;5054287;28;20535;-72
2023/01/27 11:31:34;;;;;;;3.00;1.60;;;;;;;;;;5054687;28;20074;-72
2023/01/27 11:34:10;;;;;;;3.30;2.03;;;;;;;-145.18;100.00;60484.78;5053958;28;20099;-72
2023/01/27 11:36:36;;;;;;;3.70;1.90;;;;;;;-145.18;100.00;60484.78;5053197;28;20047;-72
2023/01/27 11:39:03;;;;;;;4.23;2.03;;;;;;;-145.18;100.00;60484.78;5053048;28;20103;-72
2023/01/27 11:41:32;;;;;;;4.20;2.30;;;;;;;-145.18;100.00;60484.78;5053999;28;20052;-72
2023/01/27 11:44:05;;;;;;;4.63;2.40;;;;;;;-145.18;100.00;60484.78;5053928;28;20480;-72
2023/01/27 11:46:31;;;;;;;4.43;1.90;;;;;;;-145.18;nan;60484.78;5054071;28;20431;-71
2023/01/27 11:48:57;;;;;;;3.03;1.67;;;;;;;-145.18;100.00;60484.78;5053709;28;20024;-71
2023/01/27 11:51:28;;;;;;;3.03;1.60;;;;;;;-145.18;100.00;60484.78;5053987;28;20059;-72
2023/01/27 11:54:20;;;;;;;3.03;1.80;;;;;;;-145.18;100.00;60484.78;5053286;28;20545;-72
2023/01/27 11:56:47;;;;;;;6.53;1.73;;;;;;;;;;5052527;28;20057;-72
2023/01/27 11:59:17;;;;;;;3.70;1.70;;;;;;;-145.18;nan;60484.78;5053574;28;20021;-72
2023/01/27 12:01:54;;;;;;;3.40;1.73;;;;;;;-145.18;100.00;60484.78;5053229;28;20376;-72
2023/01/27 12:04:37;;;;;;;3.67;1.70;;;;;;;-145.18;100.00;60484.78;5050935;28;20060;-72
2023/01/27 12:07:48;;;;;;;2.53;1.50;;;;;;;-145.18;100.00;60484.78;5053428;28;20025;-72